createdAt,value
2023-04-24T00:02:12.442Z,16.37
2023-04-24T00:04:45.221Z,16.00
2023-04-24T00:07:17.403Z,16.43
2023-04-24T00:09:47.532Z,17.77
2023-04-24T00:12:17.841Z,16.60
2023-04-24T00:14:47.891Z,17.87
2023-04-24T00:17:20.464Z,14.47
2023-04-24T00:19:58.844Z,15.77
2023-04-24T00:22:29.984Z,17.40
2023-04-24T00:25:00.722Z,17.62
2023-04-24T00:27:30.497Z,16.17
2023-04-24T00:30:00.956Z,15.53
2023-04-24T00:32:31.536Z,16.97
2023-04-24T00:35:02.011Z,18.00
2023-04-24T00:37:32.950Z,15.97
2023-04-24T00:40:03.676Z,15.57
2023-04-24T00:42:34.410Z,15.90
2023-04-24T00:45:07.678Z,14.37
2023-04-24T00:47:39.142Z,15.73
2023-04-24T00:50:13.957Z,15.00
2023-04-24T00:52:44.953Z,15.60
2023-04-24T00:55:15.450Z,17.63
2023-04-24T00:57:45.998Z,15.30
2023-04-24T01:00:17.734Z,17.87
2023-04-24T01:02:49.155Z,15.57
2023-04-24T01:05:20.018Z,15.33
2023-04-24T01:07:50.548Z,13.23
2023-04-24T01:10:21.855Z,14.33
2023-04-24T01:12:53.223Z,14.00
2023-04-24T01:15:24.185Z,17.17
2023-04-24T01:17:54.526Z,15.67
2023-04-24T01:20:27.481Z,15.67
2023-04-24T01:22:57.949Z,15.53
2023-04-24T01:25:30.383Z,15.47
2023-04-24T01:28:02.356Z,14.93
2023-04-24T01:30:34.716Z,19.70
2023-04-24T01:33:05.860Z,20.10
2023-04-24T01:35:37.978Z,15.50
2023-04-24T01:40:37.857Z,14.80
2023-04-24T01:43:07.970Z,16.03
2023-04-24T01:45:38.514Z,17.30
2023-04-24T01:48:09.233Z,16.63
2023-04-24T01:50:39.765Z,16.10
2023-04-24T01:53:10.487Z,15.83
2023-04-24T01:55:41.832Z,16.30
2023-04-24T01:58:11.956Z,14.78
2023-04-24T02:00:42.698Z,16.27
2023-04-24T02:03:13.593Z,17.97
2023-04-24T02:05:45.787Z,16.40
2023-04-24T02:08:16.316Z,15.38
2023-04-24T02:10:47.052Z,17.93
2023-04-24T02:13:17.165Z,16.63
2023-04-24T02:15:47.899Z,15.07
2023-04-24T02:18:18.635Z,17.10
2023-04-24T02:20:49.360Z,17.53
2023-04-24T02:23:19.890Z,16.97
2023-04-24T02:25:50.623Z,15.23
2023-04-24T02:28:21.366Z,18.77
2023-04-24T02:30:52.698Z,17.50
2023-04-24T02:33:26.104Z,16.60
2023-04-24T02:35:57.038Z,19.33
2023-04-24T02:38:27.499Z,17.90
2023-04-24T02:40:58.492Z,16.10
2023-04-24T02:43:30.454Z,19.77
2023-04-24T02:46:02.127Z,20.80
2023-04-24T02:48:33.148Z,17.17
2023-04-24T02:51:03.674Z,15.63
2023-04-24T02:53:34.816Z,16.67
2023-04-24T02:56:05.966Z,16.87
2023-04-24T02:58:36.496Z,18.10
2023-04-24T03:01:07.083Z,18.07
2023-04-24T03:03:37.744Z,17.97
2023-04-24T03:06:09.093Z,18.27
2023-04-24T03:08:41.256Z,17.87
2023-04-24T03:11:11.382Z,17.45
2023-04-24T03:13:41.498Z,21.17
2023-04-24T03:16:12.064Z,19.53
2023-04-24T03:18:42.764Z,16.87
2023-04-24T03:21:14.309Z,19.37
2023-04-24T03:23:45.042Z,19.27
2023-04-24T03:26:15.780Z,18.93
2023-04-24T03:28:55.527Z,22.07
2023-04-24T03:31:27.096Z,26.77
2023-04-24T03:33:57.807Z,20.67
2023-04-24T03:36:28.758Z,19.60
2023-04-24T03:38:59.887Z,17.67
2023-04-24T03:41:33.080Z,20.53
2023-04-24T03:44:13.838Z,19.10
2023-04-24T03:46:44.427Z,21.27
2023-04-24T03:49:15.304Z,23.83
2023-04-24T03:51:47.670Z,18.37
2023-04-24T03:54:21.482Z,20.53
2023-04-24T03:56:53.040Z,17.32
2023-04-24T03:59:24.783Z,19.87
2023-04-24T04:02:06.010Z,18.40
2023-04-24T04:04:37.106Z,18.20
2023-04-24T04:07:08.246Z,19.67
2023-04-24T04:09:39.392Z,19.97
2023-04-24T04:12:09.913Z,18.87
2023-04-24T04:14:41.465Z,20.77
2023-04-24T04:17:12.199Z,22.93
2023-04-24T04:19:43.013Z,21.43
2023-04-24T04:22:13.662Z,22.10
2023-04-24T04:24:47.672Z,21.40
2023-04-24T04:27:19.161Z,22.17
2023-04-24T04:29:54.668Z,22.77
2023-04-24T04:32:25.608Z,21.27
2023-04-24T04:34:56.538Z,21.97
2023-04-24T04:37:29.125Z,21.12
2023-04-24T04:40:34.669Z,20.37
2023-04-24T04:43:07.255Z,23.23
2023-04-24T04:45:45.596Z,22.63
2023-04-24T04:48:32.057Z,22.57
2023-04-24T04:51:03.809Z,21.07
2023-04-24T04:53:34.626Z,24.53
2023-04-24T04:56:06.505Z,22.87
2023-04-24T04:58:49.931Z,28.67
2023-04-24T05:01:20.722Z,28.27
2023-04-24T05:03:52.149Z,25.00
2023-04-24T05:06:24.322Z,25.97
2023-04-24T05:08:57.777Z,23.53
2023-04-24T05:11:37.318Z,25.43
2023-04-24T05:14:08.049Z,27.33
2023-04-24T05:16:42.923Z,27.80
2023-04-24T05:19:14.635Z,28.50
2023-04-24T05:21:45.373Z,25.77
2023-04-24T05:24:16.100Z,23.17
2023-04-24T05:27:06.694Z,24.57
2023-04-24T05:29:39.684Z,23.83
2023-04-24T05:32:10.415Z,20.43
2023-04-24T05:34:40.940Z,29.13
2023-04-24T05:37:11.093Z,22.30
2023-04-24T05:39:42.565Z,22.43
2023-04-24T05:42:13.357Z,16.52
2023-04-24T05:44:44.283Z,18.07
2023-04-24T05:47:14.808Z,18.37
2023-04-24T05:49:47.196Z,20.10
2023-04-24T05:52:17.922Z,17.50
2023-04-24T05:54:48.854Z,15.40
2023-04-24T05:57:23.484Z,18.80
2023-04-24T05:59:57.687Z,18.83
2023-04-24T06:05:05.424Z,20.50
2023-04-24T06:10:11.561Z,16.02
2023-04-24T06:12:45.943Z,25.27
2023-04-24T06:15:20.732Z,16.03
2023-04-24T06:18:03.760Z,15.80
2023-04-24T06:20:34.922Z,14.30
2023-04-24T06:23:06.025Z,17.13
2023-04-24T06:25:37.246Z,15.33
2023-04-24T06:28:08.111Z,12.03
2023-04-24T06:30:39.657Z,15.00
2023-04-24T06:33:19.930Z,15.23
2023-04-24T06:35:50.949Z,17.83
2023-04-24T06:38:21.487Z,13.30
2023-04-24T06:40:51.606Z,13.37
2023-04-24T06:43:21.721Z,15.50
2023-04-24T06:45:52.749Z,13.90
2023-04-24T06:48:23.180Z,13.07
2023-04-24T06:50:54.934Z,15.17
2023-04-24T06:53:26.286Z,15.93
2023-04-24T06:55:57.223Z,13.98
2023-04-24T06:58:28.161Z,18.33
2023-04-24T07:00:58.520Z,18.13
2023-04-24T07:03:29.316Z,11.87
2023-04-24T07:05:59.644Z,14.37
2023-04-24T07:08:31.086Z,13.03
2023-04-24T07:11:01.201Z,12.05
2023-04-24T07:13:31.117Z,17.07
2023-04-24T07:16:01.888Z,14.27
2023-04-24T07:18:31.979Z,13.33
2023-04-24T07:21:03.529Z,11.80
2023-04-24T07:23:34.053Z,11.73
2023-04-24T07:26:07.458Z,14.57
2023-04-24T07:28:37.785Z,14.53
2023-04-24T07:31:08.113Z,13.67
2023-04-24T07:33:38.624Z,12.67
2023-04-24T07:36:09.330Z,12.87
2023-04-24T07:38:39.464Z,9.17
2023-04-24T07:41:10.211Z,10.83
2023-04-24T07:43:40.317Z,12.97
2023-04-24T07:46:11.676Z,23.20
2023-04-24T07:48:42.398Z,16.27
2023-04-24T07:51:13.949Z,14.43
2023-04-24T07:53:45.128Z,13.67
2023-04-24T07:56:15.616Z,15.63
2023-04-24T07:58:45.540Z,16.27
2023-04-24T08:01:16.276Z,11.20
2023-04-24T08:03:46.833Z,11.60
2023-04-24T08:06:17.541Z,14.07
2023-04-24T08:08:48.253Z,10.47
2023-04-24T08:11:18.989Z,19.63
2023-04-24T08:13:48.908Z,43.27
2023-04-24T08:16:19.531Z,27.70
2023-04-24T08:18:50.365Z,31.70
2023-04-24T08:21:21.528Z,19.30
2023-04-24T08:23:52.660Z,12.57
2023-04-24T08:26:23.178Z,37.90
2023-04-24T08:28:53.299Z,17.17
2023-04-24T08:31:25.672Z,13.83
2023-04-24T08:33:56.200Z,12.07
2023-04-24T08:36:33.143Z,36.83
2023-04-24T08:39:14.264Z,42.97
2023-04-24T08:41:45.930Z,18.53
2023-04-24T08:44:16.947Z,18.35
2023-04-24T08:46:49.306Z,22.57
2023-04-24T08:49:20.463Z,16.13
2023-04-24T08:51:52.261Z,13.72
2023-04-24T08:56:55.121Z,11.93
2023-04-24T08:59:26.049Z,18.20
2023-04-24T09:01:58.219Z,16.27
2023-04-24T09:04:31.490Z,23.83
2023-04-24T09:07:02.959Z,20.07
2023-04-24T09:09:35.894Z,15.17
2023-04-24T09:12:06.882Z,21.37
2023-04-24T09:14:40.024Z,18.30
2023-04-24T09:17:10.855Z,17.73
2023-04-24T09:19:41.841Z,32.35
2023-04-24T09:22:13.359Z,29.00
2023-04-24T09:24:44.025Z,28.38
2023-04-24T09:27:15.586Z,30.37
2023-04-24T09:29:57.384Z,16.20
2023-04-24T09:35:12.962Z,12.57
2023-04-24T09:37:45.265Z,10.27
2023-04-24T09:40:18.604Z,10.73
2023-04-24T09:42:54.158Z,9.63
2023-04-24T09:45:28.582Z,14.40
2023-04-24T09:47:58.985Z,10.27
2023-04-24T09:50:32.187Z,9.50
2023-04-24T09:53:05.561Z,10.50
2023-04-24T09:55:46.482Z,11.97
2023-04-24T09:58:16.493Z,13.10
2023-04-24T10:00:48.116Z,8.70
2023-04-24T10:05:50.436Z,14.63
2023-04-24T10:08:22.191Z,9.63
2023-04-24T10:10:53.536Z,9.87
2023-04-24T10:13:23.228Z,10.87
2023-04-24T10:15:53.604Z,9.23
2023-04-24T10:18:25.557Z,9.27
2023-04-24T10:20:57.674Z,8.97
2023-04-24T10:23:29.459Z,9.67
2023-04-24T10:26:01.374Z,11.20
2023-04-24T10:28:33.453Z,9.70
2023-04-24T10:31:03.637Z,8.77
2023-04-24T10:33:34.847Z,9.20
2023-04-24T10:36:09.209Z,11.70
2023-04-24T10:38:41.429Z,8.90
2023-04-24T10:41:16.792Z,8.77
2023-04-24T10:43:49.178Z,12.43
2023-04-24T10:46:21.976Z,10.50
2023-04-24T10:48:56.245Z,10.65
2023-04-24T10:51:47.055Z,11.87
2023-04-24T10:54:28.633Z,8.23
2023-04-24T10:59:43.016Z,9.43
2023-04-24T11:02:15.794Z,10.00
2023-04-24T11:04:46.959Z,10.83
2023-04-24T11:07:17.454Z,8.15
2023-04-24T11:09:47.366Z,11.37
2023-04-24T11:12:17.477Z,10.40
2023-04-24T11:15:03.897Z,7.10
2023-04-24T11:17:37.549Z,7.60
2023-04-24T11:20:25.971Z,6.77
2023-04-24T11:23:04.416Z,8.43
2023-04-24T11:25:34.770Z,7.17
2023-04-24T11:28:08.169Z,7.70
2023-04-24T11:30:42.208Z,9.50
2023-04-24T11:33:13.130Z,9.90
2023-04-24T11:35:44.472Z,9.13
2023-04-24T11:38:24.515Z,7.70
2023-04-24T11:40:55.752Z,10.23
2023-04-24T11:43:26.323Z,8.33
2023-04-24T11:46:00.751Z,8.58
2023-04-24T11:48:36.756Z,9.17
2023-04-24T11:51:07.495Z,12.13
2023-04-24T11:53:39.045Z,17.85
2023-04-24T11:56:11.413Z,12.87
2023-04-24T11:58:41.528Z,9.47
2023-04-24T12:01:12.673Z,11.73
2023-04-24T12:03:48.667Z,19.80
2023-04-24T12:06:19.773Z,12.53
2023-04-24T12:09:01.650Z,10.20
2023-04-24T12:11:34.857Z,7.37
2023-04-24T12:14:13.048Z,7.87
2023-04-24T12:16:43.284Z,8.10
2023-04-24T12:19:19.298Z,8.77
2023-04-24T12:22:03.528Z,11.60
2023-04-24T12:24:34.329Z,9.77
2023-04-24T12:27:05.269Z,9.78
2023-04-24T12:29:35.791Z,11.10
2023-04-24T12:32:16.543Z,7.03
2023-04-24T12:34:46.884Z,9.87
2023-04-24T12:37:17.818Z,8.50
2023-04-24T12:40:02.297Z,9.38
2023-04-24T12:42:34.032Z,6.10
2023-04-24T12:45:08.473Z,7.13
2023-04-24T12:47:39.606Z,9.27
2023-04-24T12:50:13.174Z,9.48
2023-04-24T12:52:44.353Z,9.20
2023-04-24T12:55:14.868Z,8.47
2023-04-24T12:57:44.780Z,9.77
2023-04-24T13:00:19.996Z,7.13
2023-04-24T13:02:51.032Z,5.90
2023-04-24T13:05:25.191Z,8.38
2023-04-24T13:07:56.106Z,7.80
2023-04-24T13:10:26.705Z,10.33
2023-04-24T13:12:57.776Z,12.68
2023-04-24T13:15:28.248Z,8.38
2023-04-24T13:17:58.874Z,13.60
2023-04-24T13:20:29.766Z,9.68
2023-04-24T13:23:00.706Z,11.18
2023-04-24T13:25:32.051Z,8.63
2023-04-24T13:28:02.592Z,8.63
2023-04-24T13:30:32.912Z,16.80
2023-04-24T13:33:04.150Z,9.27
2023-04-24T13:35:34.784Z,7.00
2023-04-24T13:38:07.714Z,8.30
2023-04-24T13:40:37.889Z,8.93
2023-04-24T13:43:08.619Z,9.40
2023-04-24T13:45:39.789Z,13.18
2023-04-24T13:48:10.382Z,10.50
2023-04-24T13:50:40.833Z,11.03
2023-04-24T13:53:11.139Z,9.10
2023-04-24T13:55:41.873Z,8.03
2023-04-24T13:58:12.814Z,8.85
2023-04-24T14:00:43.131Z,8.23
2023-04-24T14:03:13.800Z,8.77
2023-04-24T14:05:44.406Z,12.15
2023-04-24T14:08:14.527Z,16.10
2023-04-24T14:10:45.661Z,8.83
2023-04-24T14:13:16.778Z,11.30
2023-04-24T14:15:47.986Z,9.15
2023-04-24T14:18:18.269Z,9.73
2023-04-24T14:20:49.202Z,10.70
2023-04-24T14:23:19.610Z,6.53
2023-04-24T14:25:52.297Z,6.30
2023-04-24T14:28:22.414Z,9.33
2023-04-24T14:30:52.752Z,7.70
2023-04-24T14:33:23.489Z,8.90
2023-04-24T14:35:54.417Z,7.60
2023-04-24T14:38:25.363Z,8.10
2023-04-24T14:43:28.182Z,8.23
2023-04-24T14:45:58.596Z,7.17
2023-04-24T14:48:28.703Z,8.90
2023-04-24T14:51:00.141Z,6.93
2023-04-24T14:53:30.991Z,8.70
2023-04-24T14:56:01.718Z,9.75
2023-04-24T14:58:31.984Z,8.75
2023-04-24T15:01:02.159Z,9.27
2023-04-24T15:03:32.535Z,10.13
2023-04-24T15:06:04.049Z,8.08
2023-04-24T15:08:34.572Z,11.28
2023-04-24T15:11:05.300Z,8.55
2023-04-24T15:13:35.089Z,9.25
2023-04-24T15:16:06.597Z,14.20
2023-04-24T15:18:37.494Z,13.27
2023-04-24T15:21:07.491Z,10.03
2023-04-24T15:23:37.939Z,9.23
2023-04-24T15:26:08.871Z,8.68
2023-04-24T15:28:38.714Z,10.85
2023-04-24T15:31:09.517Z,9.17
2023-04-24T15:33:40.481Z,14.55
2023-04-24T15:36:11.189Z,10.95
2023-04-24T15:38:41.517Z,10.08
2023-04-24T15:41:12.655Z,15.37
2023-04-24T15:43:43.413Z,13.88
2023-04-24T15:46:14.198Z,10.80
2023-04-24T15:48:45.225Z,9.60
2023-04-24T15:51:15.181Z,10.00
2023-04-24T15:53:46.712Z,12.05
2023-04-24T15:56:17.485Z,9.57
2023-04-24T15:58:47.861Z,7.97
2023-04-24T16:01:18.359Z,15.37
2023-04-24T16:03:50.153Z,15.13
2023-04-24T16:06:20.599Z,14.50
2023-04-24T16:08:51.124Z,11.07
2023-04-24T16:11:21.048Z,8.70
2023-04-24T16:13:50.809Z,11.93
2023-04-24T16:16:20.901Z,18.00
2023-04-24T16:18:53.654Z,13.35
2023-04-24T16:21:24.997Z,11.87
2023-04-24T16:23:55.525Z,14.30
2023-04-24T16:26:26.683Z,23.93
2023-04-24T16:28:56.987Z,15.53
2023-04-24T16:31:27.341Z,15.23
2023-04-24T16:33:57.844Z,11.27
2023-04-24T16:36:28.781Z,13.77
2023-04-24T16:39:00.738Z,30.55
2023-04-24T16:43:59.336Z,21.47
2023-04-24T16:46:29.954Z,11.00
2023-04-24T16:49:00.814Z,18.63
2023-04-24T16:51:31.534Z,29.17
2023-04-24T16:54:01.861Z,26.60
2023-04-24T16:56:32.795Z,16.93
2023-04-24T16:59:03.547Z,19.57
2023-04-24T17:01:34.257Z,20.03
2023-04-24T17:04:05.103Z,14.93
2023-04-24T17:06:35.524Z,20.60
2023-04-24T17:09:06.464Z,34.10
2023-04-24T17:11:36.991Z,25.60
2023-04-24T17:14:07.313Z,22.20
2023-04-24T17:16:39.954Z,25.57
2023-04-24T17:19:10.209Z,26.93
2023-04-24T17:21:40.758Z,24.57
2023-04-24T17:24:11.671Z,20.27
2023-04-24T17:26:42.205Z,16.50
2023-04-24T17:29:13.362Z,18.80
2023-04-24T17:31:45.361Z,21.53
2023-04-24T17:34:16.039Z,19.10
2023-04-24T17:36:46.365Z,19.63
2023-04-24T17:39:16.892Z,18.43
2023-04-24T17:41:47.422Z,16.83
2023-04-24T17:44:16.844Z,19.00
2023-04-24T17:46:47.250Z,13.60
2023-04-24T17:49:17.366Z,19.40
2023-04-24T17:51:48.099Z,16.03
2023-04-24T17:54:18.664Z,13.17
2023-04-24T17:56:52.432Z,15.50
2023-04-24T17:59:23.368Z,22.20
2023-04-24T18:01:54.182Z,18.73
2023-04-24T18:04:25.810Z,19.20
2023-04-24T18:06:56.387Z,17.03
2023-04-24T18:09:26.708Z,17.13
2023-04-24T18:11:57.436Z,16.87
2023-04-24T18:14:28.389Z,19.87
2023-04-24T18:16:59.114Z,27.13
2023-04-24T18:19:29.232Z,21.60
2023-04-24T18:21:59.345Z,19.10
2023-04-24T18:24:29.874Z,17.10
2023-04-24T18:26:59.998Z,15.93
2023-04-24T18:29:30.933Z,15.83
2023-04-24T18:32:01.456Z,19.13
2023-04-24T18:34:32.193Z,20.27
2023-04-24T18:37:02.918Z,20.63
2023-04-24T18:39:33.662Z,24.17
2023-04-24T18:42:05.414Z,21.33
2023-04-24T18:44:38.302Z,22.73
2023-04-24T18:47:09.549Z,21.93
2023-04-24T18:49:40.279Z,23.52
2023-04-24T18:52:10.397Z,25.57
2023-04-24T18:54:41.539Z,20.63
2023-04-24T18:57:13.304Z,21.93
2023-04-24T18:59:43.617Z,21.00
2023-04-24T19:02:14.411Z,26.13
2023-04-24T19:04:46.107Z,23.60
2023-04-24T19:07:18.843Z,20.77
2023-04-24T19:12:19.993Z,24.77
2023-04-24T19:14:55.307Z,21.60
2023-04-24T19:17:26.142Z,24.73
2023-04-24T19:19:57.069Z,26.53
2023-04-24T19:22:28.602Z,21.77
2023-04-24T19:24:59.068Z,22.02
2023-04-24T19:27:29.665Z,21.53
2023-04-24T19:30:00.602Z,23.63
2023-04-24T19:32:31.343Z,25.50
2023-04-24T19:35:02.290Z,23.97
2023-04-24T19:37:34.022Z,19.62
2023-04-24T19:40:06.864Z,24.92
2023-04-24T19:45:14.197Z,24.10
2023-04-24T19:47:44.986Z,23.20
2023-04-24T19:50:15.269Z,25.30
2023-04-24T19:52:45.589Z,19.10
2023-04-24T19:55:16.526Z,22.13
2023-04-24T19:57:47.061Z,21.10
2023-04-24T20:00:19.032Z,22.50
2023-04-24T20:02:49.496Z,27.13
2023-04-24T20:05:21.064Z,25.40
2023-04-24T20:07:51.839Z,20.20
2023-04-24T20:10:22.367Z,20.57
2023-04-24T20:12:53.299Z,51.33
2023-04-24T20:15:24.055Z,27.77
2023-04-24T20:17:54.760Z,23.47
2023-04-24T20:20:25.703Z,23.10
2023-04-24T20:22:56.225Z,19.67
2023-04-24T20:25:26.754Z,23.63
2023-04-24T20:27:57.291Z,26.60
2023-04-24T20:30:27.411Z,23.07
2023-04-24T20:32:58.619Z,20.77
2023-04-24T20:35:28.864Z,23.30
2023-04-24T20:38:01.164Z,17.73
2023-04-24T20:43:03.940Z,18.30
2023-04-24T20:45:34.870Z,16.97
2023-04-24T20:48:06.295Z,12.47
2023-04-24T20:50:39.911Z,14.33
2023-04-24T20:53:12.185Z,13.23
2023-04-24T20:55:42.790Z,13.23
2023-04-24T20:58:13.033Z,12.03
2023-04-24T21:00:44.021Z,12.27
2023-04-24T21:03:14.358Z,13.10
2023-04-24T21:05:44.821Z,14.30
2023-04-24T21:08:16.176Z,12.00
2023-04-24T21:10:46.708Z,13.27
2023-04-24T21:13:17.226Z,15.03
2023-04-24T21:15:47.353Z,11.70
2023-04-24T21:18:17.871Z,12.67
2023-04-24T21:20:49.630Z,12.63
2023-04-24T21:23:20.401Z,18.12
2023-04-24T21:25:52.116Z,13.30
2023-04-24T21:28:24.398Z,12.28
2023-04-24T21:30:55.019Z,13.03
2023-04-24T21:33:25.756Z,12.57
2023-04-24T21:35:56.905Z,15.33
2023-04-24T21:38:28.032Z,13.95
2023-04-24T21:40:58.567Z,11.20
2023-04-24T21:43:41.450Z,13.23
2023-04-24T21:46:15.228Z,13.57
2023-04-24T21:48:45.502Z,16.50
2023-04-24T21:51:16.250Z,13.87
2023-04-24T21:53:46.542Z,11.33
2023-04-24T21:56:17.289Z,11.33
2023-04-24T21:58:48.885Z,13.87
2023-04-24T22:01:20.434Z,12.20
2023-04-24T22:03:51.094Z,13.18
2023-04-24T22:06:21.659Z,13.30
2023-04-24T22:08:52.400Z,10.77
2023-04-24T22:11:27.179Z,11.53
2023-04-24T22:13:58.337Z,10.60
2023-04-24T22:16:30.524Z,10.03
2023-04-24T22:19:01.872Z,12.07
2023-04-24T22:21:33.019Z,11.60
2023-04-24T22:24:03.340Z,14.80
2023-04-24T22:26:34.094Z,11.27
2023-04-24T22:29:03.705Z,12.50
2023-04-24T22:31:34.765Z,10.50
2023-04-24T22:34:05.454Z,11.63
2023-04-24T22:36:36.594Z,10.73
2023-04-24T22:39:10.114Z,12.35
2023-04-24T22:41:41.533Z,14.87
2023-04-24T22:44:11.414Z,13.40
2023-04-24T22:46:41.585Z,12.33
2023-04-24T22:49:12.364Z,13.27
2023-04-24T22:51:43.038Z,14.43
2023-04-24T22:54:13.778Z,12.70
2023-04-24T22:56:44.495Z,13.77
2023-04-24T22:59:14.410Z,17.33
2023-04-24T23:01:45.158Z,14.50
2023-04-24T23:04:15.822Z,14.77
2023-04-24T23:06:46.406Z,14.57
2023-04-24T23:09:16.545Z,14.80
2023-04-24T23:11:47.274Z,17.10
2023-04-24T23:14:17.377Z,15.50
2023-04-24T23:16:47.780Z,18.50
2023-04-24T23:19:18.639Z,17.37
2023-04-24T23:21:49.795Z,18.20
2023-04-24T23:24:20.920Z,16.90
2023-04-24T23:26:52.475Z,19.52
2023-04-24T23:29:22.735Z,19.47
2023-04-24T23:31:53.361Z,23.63
2023-04-24T23:34:24.064Z,20.60
2023-04-24T23:36:55.815Z,23.47
2023-04-24T23:39:26.749Z,20.82
2023-04-24T23:41:58.096Z,20.08
2023-04-24T23:44:28.421Z,22.03
2023-04-24T23:46:59.361Z,23.53
2023-04-24T23:49:30.298Z,18.77
2023-04-24T23:52:01.236Z,18.63
2023-04-24T23:54:31.561Z,16.33
2023-04-24T23:57:03.514Z,15.87
2023-04-24T23:59:33.432Z,19.35
